Time;durP1;ratioP1;P1;durP2;ratioP2;P2;SDS_P1;SDS_P2;PMS_P1;PMS_P2;Temp;Humidity;BMP_temperature;BMP_pressure;BME280_temperature;BME280_humidity;BME280_pressure;Samples;Min_cycle;Max_cycle;Signal;HPM_P1;HPM_P2
2023/09/21 00:02:13;;;;;;;14.35;4.97;;;;;;;21.02;100.00;99988.97;5080467;28;20063;-73
2023/09/21 00:04:38;;;;;;;14.00;4.22;;;;;;;21.00;100.00;99991.19;5096919;28;20066;-72
2023/09/21 00:07:05;;;;;;;15.32;4.20;;;;;;;21.02;100.00;99977.22;5080642;28;20032;-72
2023/09/21 00:09:32;;;;;;;12.50;4.60;;;;;;;21.01;100.00;99984.63;5116325;28;20031;-72
2023/09/21 00:11:58;;;;;;;15.10;3.70;;;;;;;21.01;100.00;99976.41;5115244;28;20032;-71
2023/09/21 00:14:23;;;;;;;11.95;3.80;;;;;;;21.05;100.00;99979.38;5098267;28;20030;-72
2023/09/21 00:16:48;;;;;;;12.65;3.83;;;;;;;21.11;100.00;99976.31;5108959;28;20028;-72
2023/09/21 00:19:14;;;;;;;15.45;3.90;;;;;;;21.08;100.00;99967.88;5101620;28;20363;-72
2023/09/21 00:21:39;;;;;;;13.40;3.90;;;;;;;21.10;100.00;99974.69;5115240;28;20083;-72
2023/09/21 00:24:06;;;;;;;10.23;3.60;;;;;;;21.10;100.00;99976.59;5116190;28;20024;-72
2023/09/21 00:26:34;;;;;;;13.15;3.50;;;;;;;21.13;100.00;99992.44;5115196;28;20054;-72
2023/09/21 00:29:02;;;;;;;11.35;3.58;;;;;;;21.05;100.00;99966.50;5116000;28;20084;-72
2023/09/21 00:31:29;;;;;;;13.02;3.58;;;;;;;21.14;100.00;99985.84;5115897;28;20024;-72
2023/09/21 00:33:55;;;;;;;10.43;3.75;;;;;;;21.18;100.00;99980.63;5115694;28;20107;-72
2023/09/21 00:36:23;;;;;;;13.20;3.90;;;;;;;21.17;100.00;99973.53;5114463;28;20046;-72
2023/09/21 00:38:49;;;;;;;12.95;3.28;;;;;;;21.22;100.00;99973.47;5077405;28;20091;-72
2023/09/21 00:41:17;;;;;;;11.52;3.42;;;;;;;21.26;100.00;99969.06;5076969;28;20039;-72
2023/09/21 00:43:43;;;;;;;15.77;3.78;;;;;;;21.24;100.00;99965.78;5093009;28;20021;-71
2023/09/21 00:46:09;;;;;;;11.50;3.80;;;;;;;21.20;100.00;99962.00;5114056;28;20028;-71
2023/09/21 00:48:38;;;;;;;12.55;3.88;;;;;;;21.24;100.00;99958.38;5096453;28;20028;-72
2023/09/21 00:51:07;;;;;;;10.20;3.35;;;;;;;21.26;100.00;99950.72;5113641;28;20034;-72
2023/09/21 00:53:33;;;;;;;11.95;3.70;;;;;;;21.27;100.00;99959.75;5095526;28;20414;-72
2023/09/21 00:56:05;;;;;;;13.40;3.45;;;;;;;21.28;100.00;99953.16;5113510;28;20084;-72
2023/09/21 00:58:33;;;;;;;15.48;3.30;;;;;;;21.30;100.00;99953.69;5112987;28;20024;-72
2023/09/21 01:00:59;;;;;;;13.95;3.95;;;;;;;21.23;100.00;99945.00;5096111;28;20080;-72
2023/09/21 01:03:27;;;;;;;8.48;3.47;;;;;;;21.26;100.00;99941.69;5094948;28;20047;-72
2023/09/21 01:05:53;;;;;;;12.65;3.30;;;;;;;21.24;100.00;99938.44;5113341;28;20040;-72
2023/09/21 01:08:28;;;;;;;16.48;3.78;;;;;;;21.16;100.00;99922.63;5095214;28;20031;-72
2023/09/21 01:10:54;;;;;;;13.35;3.75;;;;;;;21.22;100.00;99940.63;5073777;28;20039;-72
2023/09/21 01:13:20;;;;;;;13.32;3.42;;;;;;;21.17;100.00;99933.31;5097164;28;20020;-72
2023/09/21 01:15:58;;;;;;;15.02;4.30;;;;;;;21.21;100.00;99936.28;5077884;28;20074;-72
2023/09/21 01:18:23;;;;;;;14.95;3.88;;;;;;;21.10;100.00;99930.91;5095015;28;20038;-72
2023/09/21 01:20:51;;;;;;;17.85;3.72;;;;;;;21.11;100.00;99927.06;5103566;28;20017;-72
2023/09/21 01:23:22;;;;;;;13.13;3.80;;;;;;;21.12;100.00;99919.66;5107255;28;20053;-73
2023/09/21 01:25:50;;;;;;;12.10;3.92;;;;;;;21.10;100.00;99925.44;5108526;28;20000;-72
2023/09/21 01:28:21;;;;;;;17.17;3.67;;;;;;;21.10;100.00;99922.72;5096718;28;20024;-72
2023/09/21 01:30:51;;;;;;;15.13;3.80;;;;;;;21.14;100.00;99913.91;5095912;28;20016;-72
2023/09/21 01:33:17;;;;;;;10.05;3.42;;;;;;;21.16;100.00;99914.44;5079902;28;20031;-72
2023/09/21 01:35:43;;;;;;;12.95;4.10;;;;;;;21.14;100.00;99914.72;5093139;28;20024;-72
2023/09/21 01:38:10;;;;;;;12.85;3.78;;;;;;;21.12;100.00;99914.19;5104589;28;20027;-72
2023/09/21 01:40:37;;;;;;;14.60;3.95;;;;;;;21.15;100.00;99916.34;5112813;28;20028;-72
2023/09/21 01:43:10;;;;;;;10.90;3.72;;;;;;;20.91;100.00;99883.53;5112239;28;20032;-72
2023/09/21 01:45:39;;;;;;;15.63;4.37;;;;;;;21.07;100.00;99909.63;5112640;28;20065;-72
2023/09/21 01:48:08;;;;;;;12.88;3.72;;;;;;;21.08;100.00;99903.03;5078050;28;20024;-73
2023/09/21 01:50:39;;;;;;;10.75;3.67;;;;;;;20.91;100.00;99891.72;5099399;28;20038;-73
2023/09/21 01:53:09;;;;;;;11.43;3.50;;;;;;;20.84;100.00;99892.09;5091017;28;20029;-72
2023/09/21 01:55:35;;;;;;;13.65;3.83;;;;;;;20.81;100.00;99894.59;5058585;28;20032;-71
2023/09/21 01:58:01;;;;;;;13.93;3.72;;;;;;;20.79;100.00;99902.25;5074684;28;20057;-72
2023/09/21 02:00:29;;;;;;;10.25;4.10;;;;;;;20.76;100.00;99898.19;5075326;28;20012;-72
2023/09/21 02:02:55;;;;;;;14.82;4.18;;;;;;;20.75;100.00;99891.06;5075476;28;20047;-72
2023/09/21 02:05:21;;;;;;;14.32;4.63;;;;;;;20.68;100.00;99895.25;5075157;28;20044;-72
2023/09/21 02:07:47;;;;;;;11.05;3.85;;;;;;;20.67;100.00;99893.66;5074681;28;20008;-72
2023/09/21 02:10:16;;;;;;;11.00;4.03;;;;;;;20.59;100.00;99884.13;5074311;28;20052;-72
2023/09/21 02:12:53;;;;;;;15.80;4.57;;;;;;;20.54;100.00;99884.19;5074414;28;20009;-72
2023/09/21 02:15:19;;;;;;;13.63;4.25;;;;;;;20.42;100.00;99896.28;5072538;28;20035;-71
2023/09/21 02:17:45;;;;;;;15.38;4.13;;;;;;;20.42;100.00;99887.25;5072448;28;20032;-72
2023/09/21 02:20:14;;;;;;;21.88;4.63;;;;;;;20.45;100.00;99897.63;5089876;28;20030;-72
2023/09/21 02:22:57;;;;;;;13.07;4.00;;;;;;;20.50;100.00;99883.91;5091142;28;20011;-72
2023/09/21 02:25:25;;;;;;;16.55;4.13;;;;;;;20.46;100.00;99885.56;5092507;28;20016;-72
2023/09/21 02:27:51;;;;;;;13.57;4.28;;;;;;;20.44;100.00;99890.53;5075148;28;20272;-72
2023/09/21 02:30:21;;;;;;;18.15;5.43;;;;;;;20.51;100.00;99891.03;5092073;28;20016;-72
2023/09/21 02:32:55;;;;;;;12.80;4.00;;;;;;;20.60;100.00;99894.78;5083823;28;20020;-72
2023/09/21 02:35:25;;;;;;;15.95;4.55;;;;;;;20.57;100.00;99889.91;5090487;28;20031;-72
2023/09/21 02:37:52;;;;;;;15.70;4.30;;;;;;;20.57;100.00;99889.91;5073785;28;20020;-72
2023/09/21 02:40:22;;;;;;;12.07;4.00;;;;;;;20.61;100.00;99879.19;5073015;28;20028;-72
2023/09/21 02:42:52;;;;;;;13.75;4.50;;;;;;;20.67;100.00;99886.25;5072557;28;20029;-72
2023/09/21 02:45:20;;;;;;;15.32;4.55;;;;;;;20.67;100.00;99882.72;5059742;28;20115;-72
2023/09/21 02:47:47;;;;;;;14.77;4.03;;;;;;;20.70;100.00;99871.19;5056185;28;20131;-72
2023/09/21 02:50:20;;;;;;;17.48;4.55;;;;;;;20.78;100.00;99874.09;5080118;28;20115;-72
2023/09/21 02:52:47;;;;;;;12.85;4.30;;;;;;;20.81;100.00;99862.59;5092644;28;20028;-72
2023/09/21 02:55:16;;;;;;;13.88;3.90;;;;;;;20.85;100.00;99869.09;5075264;28;20104;-72
2023/09/21 02:57:43;;;;;;;15.25;4.25;;;;;;;20.71;100.00;99867.34;5092512;28;20025;-72
2023/09/21 03:00:26;;;;;;;16.48;4.28;;;;;;;20.69;100.00;99856.69;5092003;28;20024;-73
2023/09/21 03:02:51;;;;;;;12.90;4.28;;;;;;;20.76;100.00;99853.59;5061210;28;20091;-72
2023/09/21 03:05:17;;;;;;;15.85;4.28;;;;;;;20.71;100.00;99854.50;5075335;28;20053;-72
2023/09/21 03:07:47;;;;;;;15.50;4.00;;;;;;;20.63;100.00;99836.81;5073724;28;20062;-72
2023/09/21 03:10:13;;;;;;;16.15;4.13;;;;;;;20.80;100.00;99851.94;5073721;28;20025;-72
2023/09/21 03:12:39;;;;;;;14.85;4.35;;;;;;;20.68;100.00;99841.41;5091212;28;20062;-72
2023/09/21 03:15:15;;;;;;;15.88;4.60;;;;;;;20.78;100.00;99859.63;5074083;28;20025;-72
2023/09/21 03:17:42;;;;;;;17.90;4.43;;;;;;;20.73;100.00;99852.28;5073088;28;20263;-72
2023/09/21 03:20:25;;;;;;;12.38;4.30;;;;;;;20.72;100.00;99842.44;5074824;28;20021;-73
2023/09/21 03:22:53;;;;;;;14.55;4.40;;;;;;;20.69;100.00;99842.22;5075388;28;20021;-72
2023/09/21 03:25:25;;;;;;;14.73;4.40;;;;;;;20.68;100.00;99843.31;5090021;28;20028;-72
2023/09/21 03:27:51;;;;;;;10.63;3.67;;;;;;;20.77;100.00;99850.59;5066288;28;20024;-72
2023/09/21 03:30:17;;;;;;;14.43;4.20;;;;;;;20.78;100.00;99846.75;5041663;28;20028;-72
2023/09/21 03:32:43;;;;;;;12.95;3.88;;;;;;;20.77;100.00;99844.31;5056115;28;20042;-72
2023/09/21 03:35:11;;;;;;;13.80;4.30;;;;;;;20.73;100.00;99841.34;5078913;28;20056;-72
2023/09/21 03:37:38;;;;;;;11.82;4.03;;;;;;;20.63;100.00;99839.53;5092076;28;20055;-72
2023/09/21 03:40:06;;;;;;;12.70;4.13;;;;;;;20.69;100.00;99842.22;5078684;28;20131;-73
2023/09/21 03:42:32;;;;;;;11.38;3.92;;;;;;;20.73;100.00;99843.25;5096555;28;20012;-72
2023/09/21 03:44:58;;;;;;;13.68;4.00;;;;;;;20.67;100.00;99852.63;5077703;28;20028;-73
2023/09/21 03:47:23;;;;;;;12.73;3.97;;;;;;;20.64;100.00;99846.63;5091333;28;20051;-72
2023/09/21 03:49:49;;;;;;;16.10;3.97;;;;;;;20.60;100.00;99847.50;5092489;28;20089;-73
2023/09/21 03:52:16;;;;;;;13.02;3.70;;;;;;;20.61;100.00;99858.16;5076410;28;20088;-72
2023/09/21 03:54:47;;;;;;;12.02;3.60;;;;;;;20.60;100.00;99858.44;5077281;28;20120;-72
2023/09/21 03:57:16;;;;;;;9.73;3.50;;;;;;;20.67;100.00;99861.66;5068578;28;20036;-74
2023/09/21 03:59:43;;;;;;;13.07;3.97;;;;;;;20.64;100.00;99845.81;5033854;28;20218;-70
2023/09/21 04:02:08;;;;;;;10.35;3.90;;;;;;;20.67;100.00;99852.63;5067404;28;20062;-71
2023/09/21 04:04:34;;;;;;;13.13;3.70;;;;;;;20.63;100.00;99850.47;5073351;28;20070;-72
2023/09/21 04:07:00;;;;;;;13.55;3.42;;;;;;;20.57;100.00;99827.03;5088604;28;20028;-71
2023/09/21 04:09:25;;;;;;;13.05;3.70;;;;;;;20.65;100.00;99837.31;5044424;28;20032;-71
2023/09/21 04:11:51;;;;;;;10.80;3.63;;;;;;;20.62;100.00;99832.44;5064584;28;20052;-71
2023/09/21 04:14:16;;;;;;;9.55;3.13;;;;;;;20.65;100.00;99833.78;5050087;28;20032;-74
2023/09/21 04:16:42;;;;;;;12.48;3.30;;;;;;;20.50;100.00;99812.88;5076630;28;20035;-74
2023/09/21 04:19:10;;;;;;;9.65;4.03;;;;;;;20.56;100.00;99828.16;5060316;28;20048;-75
2023/09/21 04:21:36;;;;;;;11.00;3.00;;;;;;;20.47;100.00;99826.31;5097193;28;20471;-73
2023/09/21 04:24:02;;;;;;;16.13;3.80;;;;;;;20.49;100.00;99827.63;5079432;28;20414;-70
2023/09/21 04:26:28;;;;;;;13.18;3.20;;;;;;;20.44;100.00;99815.94;5081825;28;20081;-70
2023/09/21 04:28:54;;;;;;;13.82;3.58;;;;;;;20.36;100.00;99826.41;5047098;28;20036;-69
2023/09/21 04:31:19;;;;;;;10.48;3.38;;;;;;;20.37;100.00;99824.47;5079808;28;20039;-71
2023/09/21 04:33:45;;;;;;;11.73;3.65;;;;;;;20.32;100.00;99816.31;5078886;28;20384;-72
2023/09/21 04:36:10;;;;;;;10.13;3.50;;;;;;;20.39;100.00;99822.25;5079404;28;20077;-70
2023/09/21 04:38:37;;;;;;;12.48;3.42;;;;;;;20.38;100.00;99826.91;5077449;28;20054;-70
2023/09/21 04:41:04;;;;;;;9.55;3.25;;;;;;;20.34;100.00;99814.94;5061563;28;20245;-69
2023/09/21 04:43:30;;;;;;;13.73;3.60;;;;;;;20.33;100.00;99821.50;5062895;28;20032;-72
2023/09/21 04:45:55;;;;;;;14.55;3.95;;;;;;;20.29;100.00;99814.16;5061941;28;20024;-71
2023/09/21 04:48:20;;;;;;;12.75;3.58;;;;;;;20.27;100.00;99809.00;5061322;28;20020;-72
2023/09/21 04:50:48;;;;;;;12.23;3.55;;;;;;;20.27;100.00;99805.47;5080027;28;20430;-72
2023/09/21 04:53:15;;;;;;;13.15;3.60;;;;;;;20.17;100.00;99801.72;5063118;28;20027;-72
2023/09/21 04:55:40;;;;;;;12.30;3.28;;;;;;;20.29;100.00;99811.44;5058414;28;20024;-71
2023/09/21 04:58:06;;;;;;;11.32;3.42;;;;;;;20.30;100.00;99813.88;5076641;28;20461;-71
2023/09/21 05:00:31;;;;;;;12.52;3.25;;;;;;;20.14;100.00;99798.75;5078285;28;20024;-71
2023/09/21 05:02:57;;;;;;;13.02;3.20;;;;;;;20.21;100.00;99806.59;5059964;28;20149;-71
2023/09/21 05:05:24;;;;;;;10.57;3.10;;;;;;;20.30;100.00;99802.16;5058875;28;20051;-71
2023/09/21 05:07:50;;;;;;;12.27;3.92;;;;;;;20.30;100.00;99810.34;5057690;28;20115;-71
2023/09/21 05:10:16;;;;;;;13.73;3.25;;;;;;;20.36;100.00;99806.44;5072248;28;20067;-71
2023/09/21 05:12:42;;;;;;;12.55;3.30;;;;;;;20.34;100.00;99800.47;5077700;28;20057;-71
2023/09/21 05:15:08;;;;;;;7.50;2.92;;;;;;;20.35;100.00;99794.69;5079872;28;20024;-71
2023/09/21 05:17:37;;;;;;;10.65;3.40;;;;;;;20.41;100.00;99793.53;5079622;28;20032;-71
2023/09/21 05:20:05;;;;;;;10.57;3.15;;;;;;;20.45;100.00;99792.97;5072506;28;20171;-72
2023/09/21 05:22:30;;;;;;;9.25;2.90;;;;;;;20.47;100.00;99793.50;5058718;28;20046;-72
2023/09/21 05:24:56;;;;;;;7.88;2.63;;;;;;;20.44;100.00;99778.50;5080742;28;20494;-72
2023/09/21 05:27:21;;;;;;;11.80;3.20;;;;;;;20.56;100.00;99789.88;5062064;28;20028;-72
2023/09/21 05:29:47;;;;;;;13.50;3.25;;;;;;;20.60;100.00;99785.47;5042806;28;20050;-72
2023/09/21 05:32:13;;;;;;;6.63;2.65;;;;;;;20.64;100.00;99778.28;5060239;28;20047;-72
2023/09/21 05:34:39;;;;;;;12.02;2.90;;;;;;;20.62;100.00;99771.50;5059890;28;20025;-71
2023/09/21 05:37:04;;;;;;;11.15;2.80;;;;;;;20.73;100.00;99772.19;5059875;28;20032;-71
2023/09/21 05:39:30;;;;;;;10.70;3.10;;;;;;;20.63;100.00;99763.00;5059118;28;20115;-71
2023/09/21 05:41:55;;;;;;;11.45;3.67;;;;;;;20.63;100.00;99762.19;5058818;28;20024;-72
2023/09/21 05:44:24;;;;;;;7.47;2.45;;;;;;;20.64;100.00;99750.97;5042261;28;20362;-71
2023/09/21 05:46:50;;;;;;;9.35;3.00;;;;;;;20.78;100.00;99772.13;5057882;28;20028;-73
2023/09/21 05:49:24;;;;;;;12.10;2.53;;;;;;;20.77;100.00;99765.03;5057746;28;20058;-72
2023/09/21 05:51:52;;;;;;;;;;;;;;;20.75;100.00;99769.97;5059623;28;20471;-74
2023/09/21 05:54:23;;;;;;;6.85;2.60;;;;;;;20.61;100.00;99753.47;5082496;28;19909;-73
2023/09/21 05:56:52;;;;;;;7.90;2.63;;;;;;;20.69;100.00;99768.41;5063285;28;20028;-73
2023/09/21 05:59:19;;;;;;;10.23;2.30;;;;;;;20.70;100.00;99775.53;5061519;28;20471;-73
2023/09/21 06:01:44;;;;;;;8.57;2.90;;;;;;;20.81;100.00;99775.09;5055208;28;20489;-73
2023/09/21 06:04:12;;;;;;;5.72;2.22;;;;;;;20.47;100.00;99744.31;5058688;28;20045;-73
2023/09/21 06:06:40;;;;;;;4.93;2.60;;;;;;;20.76;100.00;99774.31;5059396;28;20032;-73
2023/09/21 06:09:07;;;;;;;8.00;2.63;;;;;;;20.73;100.00;99783.09;5058651;28;20142;-73
2023/09/21 06:11:33;;;;;;;7.65;2.92;;;;;;;20.72;100.00;99787.75;5024401;28;20033;-73
2023/09/21 06:13:59;;;;;;;6.07;2.40;;;;;;;20.78;100.00;99780.31;5077043;28;20023;-73
2023/09/21 06:16:24;;;;;;;8.20;3.13;;;;;;;20.85;100.00;99789.00;5061942;28;20476;-73
2023/09/21 06:18:49;;;;;;;10.10;2.95;;;;;;;20.86;100.00;99788.72;5082942;28;20036;-73
2023/09/21 06:21:18;;;;;;;7.93;2.97;;;;;;;20.77;100.00;99767.78;5092218;28;20028;-73
2023/09/21 06:23:44;;;;;;;7.88;2.30;;;;;;;20.82;100.00;99773.16;5039546;28;20036;-73
2023/09/21 06:26:16;;;;;;;8.82;2.60;;;;;;;20.81;100.00;99777.81;5060829;28;20028;-73
2023/09/21 06:28:48;;;;;;;9.07;3.45;;;;;;;20.79;100.00;99771.00;5058288;28;20032;-73
2023/09/21 06:31:15;;;;;;;9.57;2.70;;;;;;;20.91;100.00;99776.06;5076421;28;20032;-73
2023/09/21 06:33:41;;;;;;;7.90;2.70;;;;;;;21.04;100.00;99787.09;5076627;28;20021;-73
2023/09/21 06:36:18;;;;;;;6.00;2.75;;;;;;;21.04;100.00;99767.16;5061309;28;20021;-73
2023/09/21 06:38:44;;;;;;;7.90;2.65;;;;;;;21.09;100.00;99756.13;5048204;28;20033;-73
2023/09/21 06:41:10;;;;;;;9.57;2.63;;;;;;;21.16;100.00;99778.47;5078188;28;20024;-73
2023/09/21 06:43:38;;;;;;;8.00;2.65;;;;;;;21.37;100.00;99778.22;5060151;28;20056;-72
2023/09/21 06:46:05;;;;;;;6.22;2.80;;;;;;;21.47;100.00;99761.66;5082281;28;20035;-73
2023/09/21 06:48:30;;;;;;;6.47;2.33;;;;;;;21.42;100.00;99765.25;5077422;28;20045;-73
2023/09/21 06:50:56;;;;;;;8.82;2.72;;;;;;;21.40;100.00;99759.28;5042668;28;20103;-73
2023/09/21 06:53:23;;;;;;;5.28;2.55;;;;;;;21.34;100.00;99754.97;5026949;28;20028;-73
2023/09/21 06:55:49;;;;;;;8.32;2.75;;;;;;;21.51;100.00;99760.75;5041988;28;20029;-73
2023/09/21 06:58:15;;;;;;;7.80;2.83;;;;;;;21.63;100.00;99762.22;5074936;28;20058;-72
2023/09/21 07:00:41;;;;;;;5.40;2.30;;;;;;;21.62;100.00;99752.38;5059920;28;20036;-72
2023/09/21 07:03:06;;;;;;;9.95;2.30;;;;;;;21.68;100.00;99759.41;5084237;28;20036;-72
2023/09/21 07:05:32;;;;;;;15.57;2.60;;;;;;;21.70;100.00;99771.69;5049391;28;20060;-72
2023/09/21 07:07:57;;;;;;;4.30;2.05;;;;;;;21.60;100.00;99762.81;5079520;28;20040;-73
2023/09/21 07:10:22;;;;;;;7.40;2.30;;;;;;;21.62;100.00;99766.06;5061157;28;20035;-73
2023/09/21 07:12:48;;;;;;;7.78;2.40;;;;;;;21.72;100.00;99771.38;5061361;28;20021;-73
2023/09/21 07:15:13;;;;;;;10.05;2.42;;;;;;;21.83;100.00;99767.38;5079021;28;20036;-72
2023/09/21 07:17:39;;;;;;;14.48;2.65;;;;;;;21.87;100.00;99773.06;5080356;28;20031;-73
2023/09/21 07:20:06;;;;;;;6.13;2.55;;;;;;;21.91;100.00;99768.59;5045438;28;20316;-73
2023/09/21 07:22:32;;;;;;;5.20;2.30;;;;;;;21.88;100.00;99764.53;5064839;28;20020;-73
2023/09/21 07:24:58;;;;;;;10.35;2.70;;;;;;;21.88;100.00;99764.53;5087586;28;20028;-73
2023/09/21 07:27:24;;;;;;;9.88;2.70;;;;;;;21.97;100.00;99754.53;5080469;28;20062;-73
2023/09/21 07:29:52;;;;;;;5.30;2.17;;;;;;;22.07;100.00;99759.00;5046453;28;20494;-73
2023/09/21 07:32:17;;;;;;;5.25;2.30;;;;;;;22.19;99.89;99755.84;5060215;28;20521;-73
2023/09/21 07:34:43;;;;;;;7.75;2.42;;;;;;;22.43;98.54;99747.44;5026842;28;20025;-73
2023/09/21 07:37:12;;;;;;;4.55;2.50;;;;;;;22.66;97.28;99751.91;5062405;28;20075;-73
2023/09/21 07:39:38;;;;;;;6.40;2.40;;;;;;;22.68;97.37;99737.88;5079693;28;20491;-73
2023/09/21 07:42:04;;;;;;;6.60;2.40;;;;;;;22.84;96.29;99739.16;5080023;28;20089;-73
2023/09/21 07:44:30;;;;;;;5.93;2.22;;;;;;;22.86;95.90;99730.66;5079917;28;20039;-73
2023/09/21 07:46:57;;;;;;;8.20;2.42;;;;;;;22.81;95.69;99728.81;5061696;28;20039;-73
2023/09/21 07:49:25;;;;;;;7.78;2.40;;;;;;;23.05;94.26;99747.03;5044887;28;20111;-73
2023/09/21 07:51:55;;;;;;;8.13;2.17;;;;;;;23.07;93.71;99737.34;5046044;28;20139;-73
2023/09/21 07:54:21;;;;;;;5.47;2.33;;;;;;;23.02;93.28;99729.22;5063715;28;20028;-73
2023/09/21 07:56:47;;;;;;;6.45;2.13;;;;;;;23.09;93.01;99750.75;5062565;28;20479;-73
2023/09/21 07:59:12;;;;;;;6.32;2.05;;;;;;;23.11;92.60;99751.25;5078984;28;20033;-72
2023/09/21 08:01:38;;;;;;;5.22;2.00;;;;;;;23.17;91.95;99755.50;5046633;28;20029;-73
2023/09/21 08:04:04;;;;;;;6.57;2.33;;;;;;;23.09;91.76;99750.75;5060249;28;20048;-73
2023/09/21 08:06:29;;;;;;;7.20;2.60;;;;;;;23.05;91.80;99747.03;5046694;28;20035;-72
2023/09/21 08:08:57;;;;;;;8.70;2.53;;;;;;;;;;5082175;28;20423;-72
2023/09/21 08:11:23;;;;;;;7.60;2.58;;;;;;;23.38;90.13;99758.63;5059279;28;20498;-73
2023/09/21 08:13:48;;;;;;;12.10;2.35;;;;;;;23.38;90.24;99740.22;5058526;28;20028;-73
2023/09/21 08:16:13;;;;;;;7.07;2.50;;;;;;;23.24;90.29;99730.38;5059765;28;20033;-73
2023/09/21 08:18:39;;;;;;;6.93;2.40;;;;;;;23.23;90.13;99756.22;5062273;28;20029;-72
2023/09/21 08:21:05;;;;;;;5.20;2.30;;;;;;;23.25;89.86;99743.81;5046957;28;20036;-73
2023/09/21 08:23:31;;;;;;;7.25;2.20;;;;;;;23.13;90.03;99754.50;5061536;28;20111;-73
2023/09/21 08:25:58;;;;;;;7.28;2.10;;;;;;;23.25;89.56;99751.25;5046868;28;20105;-72
2023/09/21 08:28:24;;;;;;;8.45;2.28;;;;;;;23.30;88.80;99749.16;5067779;28;20012;-72
2023/09/21 08:30:50;;;;;;;6.82;2.35;;;;;;;23.20;88.82;99735.69;5060476;28;20486;-73
2023/09/21 08:33:17;;;;;;;4.35;1.73;;;;;;;23.13;89.23;99732.56;5061351;28;20054;-73
2023/09/21 08:35:43;;;;;;;7.78;2.15;;;;;;;23.34;88.20;99747.41;5065852;28;20032;-72
2023/09/21 08:38:09;;;;;;;6.20;2.00;;;;;;;23.42;87.26;99740.41;5063246;28;20028;-72
2023/09/21 08:40:37;;;;;;;5.95;2.20;;;;;;;23.59;86.23;99746.03;5043710;28;20044;-73
2023/09/21 08:43:04;;;;;;;6.95;1.90;;;;;;;23.60;85.77;99742.13;5081958;28;20101;-73
2023/09/21 08:45:30;;;;;;;5.97;1.98;;;;;;;23.53;85.22;99732.72;5049510;28;20032;-73
2023/09/21 08:47:56;;;;;;;6.93;2.10;;;;;;;23.49;84.89;99713.31;5047964;28;20067;-73
2023/09/21 08:50:22;;;;;;;7.20;2.42;;;;;;;23.59;84.15;99739.72;5087048;28;20024;-73
2023/09/21 08:52:48;;;;;;;6.18;2.30;;;;;;;23.72;83.46;99744.38;5038779;28;20023;-72
2023/09/21 08:55:16;;;;;;;7.05;2.08;;;;;;;23.58;83.34;99738.91;5085329;28;20032;-73
2023/09/21 08:57:42;;;;;;;5.47;1.92;;;;;;;23.63;82.76;99741.53;5066261;28;20033;-72
2023/09/21 09:00:08;;;;;;;6.50;2.10;;;;;;;23.71;82.15;99726.28;5063351;28;20035;-73
2023/09/21 09:02:35;;;;;;;4.43;1.92;;;;;;;23.76;81.59;99737.13;5078743;28;20032;-73
2023/09/21 09:05:06;;;;;;;4.60;2.33;;;;;;;23.81;81.08;99737.00;5076885;28;20044;-73
2023/09/21 09:07:41;;;;;;;5.10;2.10;;;;;;;23.87;80.70;99730.25;5040514;28;20101;-73
2023/09/21 09:10:11;;;;;;;4.38;1.92;;;;;;;23.97;80.10;99731.91;5063731;28;20499;-73
2023/09/21 09:12:37;;;;;;;5.43;1.73;;;;;;;23.91;80.07;99736.75;5062091;28;20029;-73
2023/09/21 09:15:05;;;;;;;9.85;2.30;;;;;;;23.98;79.89;99736.28;5050287;28;20043;-73
2023/09/21 09:17:31;;;;;;;6.60;2.70;;;;;;;24.00;79.32;99734.03;5056409;28;20157;-73
2023/09/21 09:19:57;;;;;;;5.57;2.08;;;;;;;23.96;79.63;99738.53;5023023;28;20021;-73
2023/09/21 09:22:23;;;;;;;5.53;2.20;;;;;;;24.00;79.14;99730.47;5056744;28;20790;-72
2023/09/21 09:24:49;;;;;;;5.25;1.90;;;;;;;23.95;78.91;99747.09;5076900;28;20032;-73
2023/09/21 09:27:15;;;;;;;5.72;2.10;;;;;;;23.86;79.04;99733.31;5058318;28;20036;-72
2023/09/21 09:29:48;;;;;;;7.95;2.08;;;;;;;24.00;78.35;99738.72;5081428;28;20030;-73
2023/09/21 09:32:16;;;;;;;9.02;1.90;;;;;;;23.95;78.75;99730.63;5069764;28;20024;-73
2023/09/21 09:34:42;;;;;;;8.95;2.25;;;;;;;24.00;78.34;99735.97;5063413;28;20054;-72
2023/09/21 09:37:12;;;;;;;6.20;2.40;;;;;;;24.06;78.00;99737.47;5052774;28;20069;-72
2023/09/21 09:39:38;;;;;;;4.80;2.00;;;;;;;23.91;78.14;99724.94;5083031;28;20032;-72
2023/09/21 09:42:06;;;;;;;5.63;2.03;;;;;;;24.01;77.47;99732.13;5079977;28;20103;-72
2023/09/21 09:44:37;;;;;;;6.55;2.00;;;;;;;23.96;77.05;99733.03;5078004;28;20071;-71
2023/09/21 09:47:05;;;;;;;7.88;2.33;;;;;;;24.25;76.02;99729.81;5077950;28;20293;-73
2023/09/21 09:49:32;;;;;;;8.23;2.55;;;;;;;24.44;74.55;99731.53;5061560;28;20045;-70
2023/09/21 09:52:00;;;;;;;7.93;2.20;;;;;;;24.55;73.94;99735.59;5043347;28;20056;-72
2023/09/21 09:54:29;;;;;;;9.60;2.45;;;;;;;24.58;73.35;99723.97;5072435;28;20052;-70
2023/09/21 09:56:57;;;;;;;5.30;2.00;;;;;;;24.50;72.97;99731.06;5073863;28;20028;-72
2023/09/21 09:59:24;;;;;;;7.18;2.30;;;;;;;24.36;73.29;99713.81;5040314;28;20669;-70
2023/09/21 10:01:50;;;;;;;7.13;2.55;;;;;;;24.31;73.55;99728.53;5057224;28;20048;-72
2023/09/21 10:04:18;;;;;;;6.22;2.40;;;;;;;24.20;73.80;99723.63;5073520;28;20605;-70
2023/09/21 10:06:47;;;;;;;5.07;2.00;;;;;;;24.18;73.82;99715.72;5059623;28;20040;-70
2023/09/21 10:09:13;;;;;;;9.32;2.60;;;;;;;24.29;72.96;99718.97;5076041;28;20992;-72
2023/09/21 10:11:42;;;;;;;6.07;2.17;;;;;;;24.39;72.51;99718.69;5070202;28;20027;-71
2023/09/21 10:14:11;;;;;;;6.20;2.20;;;;;;;24.50;72.06;99713.75;5076399;28;20020;-71
2023/09/21 10:16:38;;;;;;;8.25;2.22;;;;;;;24.68;71.48;99726.44;5052575;28;20024;-71
2023/09/21 10:19:05;;;;;;;6.30;2.13;;;;;;;24.80;70.47;99723.03;5072980;28;20118;-71
2023/09/21 10:21:35;;;;;;;6.35;1.92;;;;;;;24.88;70.10;99722.25;5064996;28;20430;-72
2023/09/21 10:24:13;;;;;;;6.88;2.28;;;;;;;24.87;69.76;99725.31;5074511;28;20033;-72
2023/09/21 10:26:44;;;;;;;4.55;2.15;;;;;;;24.88;68.95;99726.97;5076799;28;20025;-72
2023/09/21 10:29:12;;;;;;;8.45;2.17;;;;;;;24.95;68.25;99727.28;5061158;28;20050;-72
2023/09/21 10:31:39;;;;;;;5.47;2.15;;;;;;;24.86;67.71;99713.50;5080157;28;20059;-73
2023/09/21 10:34:08;;;;;;;9.82;2.20;;;;;;;24.87;66.95;99717.06;5062848;28;20029;-71
2023/09/21 10:36:38;;;;;;;3.67;1.90;;;;;;;24.98;66.76;99699.94;5079478;28;20040;-71
2023/09/21 10:39:06;;;;;;;6.93;2.35;;;;;;;24.96;66.16;99720.66;5081418;28;20032;-71
2023/09/21 10:41:34;;;;;;;8.50;2.20;;;;;;;24.94;65.81;99720.19;5085672;28;20020;-72
2023/09/21 10:44:02;;;;;;;8.15;2.08;;;;;;;24.98;65.56;99716.44;5068863;28;20025;-72
2023/09/21 10:46:31;;;;;;;7.97;2.30;;;;;;;25.03;65.26;99726.47;5070698;28;20037;-71
2023/09/21 10:49:03;;;;;;;7.53;2.20;;;;;;;25.03;64.16;99723.72;5061985;28;20037;-72
2023/09/21 10:51:31;;;;;;;6.40;2.20;;;;;;;24.96;65.22;99724.19;5082238;28;20024;-72
2023/09/21 10:53:59;;;;;;;6.88;2.10;;;;;;;24.94;64.70;99706.41;5070652;28;20552;-71
2023/09/21 10:56:28;;;;;;;7.38;2.30;;;;;;;24.96;64.13;99731.66;5073078;28;20033;-72
2023/09/21 10:58:54;;;;;;;7.57;2.25;;;;;;;25.02;63.73;99730.38;5058905;28;20095;-73
2023/09/21 11:01:22;;;;;;;7.22;2.00;;;;;;;25.21;63.19;99724.59;5090736;28;20090;-72
2023/09/21 11:03:48;;;;;;;5.00;2.10;;;;;;;25.24;62.64;99726.72;5088697;28;20040;-72
2023/09/21 11:06:17;;;;;;;7.28;2.20;;;;;;;25.15;62.89;99720.38;5072309;28;20051;-72
2023/09/21 11:08:48;;;;;;;4.80;1.92;;;;;;;25.28;62.60;99731.22;5073848;28;20028;-72
2023/09/21 11:11:19;;;;;;;6.68;2.00;;;;;;;25.43;61.87;99740.97;5071730;28;20062;-73
2023/09/21 11:13:49;;;;;;;6.25;2.13;;;;;;;25.43;62.68;99738.22;5075539;28;20028;-72
2023/09/21 11:16:15;;;;;;;12.27;2.30;;;;;;;25.49;62.59;99744.34;5067286;28;20033;-71
2023/09/21 11:18:40;;;;;;;8.82;2.53;;;;;;;25.33;62.52;99737.72;5062331;28;20038;-72
2023/09/21 11:21:09;;;;;;;5.43;2.15;;;;;;;25.39;62.40;99747.44;5069985;28;20525;-72
2023/09/21 11:23:36;;;;;;;6.63;2.20;;;;;;;25.47;62.17;99741.94;5073971;28;20067;-72
2023/09/21 11:26:02;;;;;;;5.78;2.25;;;;;;;25.63;62.09;99747.75;5088369;28;20037;-73